createdAt,value
2023-01-12T00:01:52.582Z,12.82
2023-01-12T00:04:19.761Z,13.52
2023-01-12T00:06:47.250Z,13.52
2023-01-12T00:09:14.415Z,14.48
2023-01-12T00:11:41.585Z,13.20
2023-01-12T00:14:09.909Z,15.10
2023-01-12T00:16:38.165Z,14.32
2023-01-12T00:19:16.765Z,17.55
2023-01-12T00:21:50.541Z,13.05
2023-01-12T00:24:18.718Z,15.18
2023-01-12T00:26:49.686Z,12.40
2023-01-12T00:29:17.768Z,14.77
2023-01-12T00:31:45.341Z,14.38
2023-01-12T00:34:13.273Z,16.10
2023-01-12T00:36:40.743Z,13.73
2023-01-12T00:39:07.972Z,17.50
2023-01-12T00:41:55.777Z,17.33
2023-01-12T00:44:41.595Z,14.30
2023-01-12T00:47:09.590Z,14.60
2023-01-12T00:49:37.908Z,19.20
2023-01-12T00:52:06.632Z,23.70
2023-01-12T00:54:34.787Z,16.95
2023-01-12T00:57:03.129Z,24.02
2023-01-12T00:59:30.658Z,23.35
2023-01-12T01:01:58.171Z,18.23
2023-01-12T01:04:25.643Z,15.45
2023-01-12T01:06:52.811Z,20.75
2023-01-12T01:09:20.105Z,15.77
2023-01-12T01:11:47.182Z,17.70
2023-01-12T01:14:14.361Z,17.63
2023-01-12T01:16:41.669Z,12.55
2023-01-12T01:19:09.751Z,17.25
2023-01-12T01:21:36.831Z,17.42
2023-01-12T01:24:04.138Z,15.10
2023-01-12T01:26:31.923Z,13.38
2023-01-12T01:28:59.055Z,16.10
2023-01-12T01:31:26.866Z,16.42
2023-01-12T01:33:54.168Z,13.68
2023-01-12T01:36:22.042Z,17.95
2023-01-12T01:38:50.432Z,12.65
2023-01-12T01:41:24.145Z,11.95
2023-01-12T01:43:58.572Z,14.82
2023-01-12T01:49:28.114Z,13.23
2023-01-12T01:52:00.353Z,14.90
2023-01-12T01:54:30.804Z,12.27
2023-01-12T01:56:58.149Z,16.63
2023-01-12T01:59:30.862Z,17.65
2023-01-12T02:01:58.786Z,16.70
2023-01-12T02:04:26.071Z,14.88
2023-01-12T02:06:55.891Z,13.70
2023-01-12T02:09:26.265Z,14.13
2023-01-12T02:12:27.860Z,14.05
2023-01-12T02:15:14.663Z,15.68
2023-01-12T02:17:41.670Z,11.93
2023-01-12T02:20:36.668Z,16.08
2023-01-12T02:23:22.757Z,18.48
2023-01-12T02:26:29.069Z,15.13
2023-01-12T02:29:23.984Z,14.85
2023-01-12T02:32:07.432Z,11.40
2023-01-12T02:34:50.175Z,11.32
2023-01-12T02:37:23.006Z,14.77
2023-01-12T02:40:01.143Z,18.83
2023-01-12T02:43:06.933Z,14.40
2023-01-12T02:45:49.665Z,11.63
2023-01-12T02:48:28.336Z,15.52
2023-01-12T02:51:05.618Z,20.45
2023-01-12T02:53:43.347Z,14.10
2023-01-12T02:56:14.807Z,18.38
2023-01-12T02:58:47.334Z,13.13
2023-01-12T03:01:16.921Z,19.88
2023-01-12T03:03:44.293Z,14.07
2023-01-12T03:06:16.407Z,14.85
2023-01-12T03:08:44.811Z,13.10
2023-01-12T03:11:20.770Z,11.73
2023-01-12T03:13:47.848Z,15.63
2023-01-12T03:16:19.340Z,16.58
2023-01-12T03:18:59.004Z,21.73
2023-01-12T03:21:36.239Z,22.40
2023-01-12T03:24:08.952Z,19.67
2023-01-12T03:26:42.037Z,14.55
2023-01-12T03:29:17.257Z,12.43
2023-01-12T03:31:44.438Z,21.92
2023-01-12T03:34:12.035Z,17.00
2023-01-12T03:36:48.711Z,15.68
2023-01-12T03:39:57.246Z,14.05
2023-01-12T03:42:30.357Z,16.95
2023-01-12T03:45:03.286Z,15.98
2023-01-12T03:47:32.998Z,15.63
2023-01-12T03:50:06.613Z,13.02
2023-01-12T03:52:36.154Z,15.73
2023-01-12T03:55:05.824Z,17.95
2023-01-12T03:57:33.857Z,16.05
2023-01-12T04:00:03.102Z,17.67
2023-01-12T04:02:39.684Z,25.45
2023-01-12T04:05:08.939Z,17.45
2023-01-12T04:07:35.986Z,13.60
2023-01-12T04:10:04.619Z,17.30
2023-01-12T04:12:31.618Z,17.25
2023-01-12T04:14:59.200Z,17.60
2023-01-12T04:17:28.136Z,14.88
2023-01-12T04:19:55.192Z,21.30
2023-01-12T04:22:40.849Z,12.07
2023-01-12T04:25:09.811Z,13.57
2023-01-12T04:27:37.285Z,17.65
2023-01-12T04:30:04.934Z,15.43
2023-01-12T04:32:31.948Z,28.80
2023-01-12T04:34:59.043Z,21.25
2023-01-12T04:37:26.086Z,23.15
2023-01-12T04:39:53.213Z,23.92
2023-01-12T04:42:38.998Z,19.85
2023-01-12T04:45:06.586Z,25.17
2023-01-12T04:47:34.502Z,41.63
2023-01-12T04:50:01.628Z,40.88
2023-01-12T04:52:28.689Z,54.88
2023-01-12T04:54:56.965Z,65.93
2023-01-12T04:57:24.513Z,58.10
2023-01-12T04:59:51.586Z,48.53
2023-01-12T05:02:18.693Z,43.88
2023-01-12T05:04:47.868Z,33.13
2023-01-12T05:07:15.385Z,28.85
2023-01-12T05:10:01.287Z,23.67
2023-01-12T05:12:28.390Z,22.10
2023-01-12T05:14:55.477Z,29.52
2023-01-12T05:17:22.630Z,27.73
2023-01-12T05:19:49.863Z,23.60
2023-01-12T05:22:16.967Z,19.40
2023-01-12T05:24:43.967Z,15.23
2023-01-12T05:27:11.149Z,21.98
2023-01-12T05:29:38.260Z,14.45
2023-01-12T05:32:05.341Z,13.63
2023-01-12T05:34:32.384Z,18.50
2023-01-12T05:36:59.570Z,17.33
2023-01-12T05:39:26.657Z,14.23
2023-01-12T05:42:11.991Z,15.30
2023-01-12T05:44:39.132Z,17.45
2023-01-12T05:47:06.127Z,16.20
2023-01-12T05:49:33.195Z,17.65
2023-01-12T05:52:00.239Z,14.60
2023-01-12T05:54:27.258Z,13.32
2023-01-12T05:56:55.582Z,14.88
2023-01-12T05:59:22.707Z,14.32
2023-01-12T06:01:49.804Z,18.33
2023-01-12T06:04:16.933Z,16.67
2023-01-12T06:06:44.049Z,17.15
2023-01-12T06:09:11.125Z,16.95
2023-01-12T06:11:56.598Z,18.15
2023-01-12T06:14:23.685Z,14.65
2023-01-12T06:16:50.742Z,18.10
2023-01-12T06:19:17.817Z,13.15
2023-01-12T06:21:44.848Z,16.60
2023-01-12T06:24:12.043Z,17.27
2023-01-12T06:26:39.199Z,14.93
2023-01-12T06:29:07.324Z,21.08
2023-01-12T06:31:34.525Z,12.98
2023-01-12T06:34:01.718Z,18.45
2023-01-12T06:36:28.693Z,15.85
2023-01-12T06:38:55.896Z,14.85
2023-01-12T06:41:41.554Z,19.20
2023-01-12T06:44:08.678Z,15.77
2023-01-12T06:46:35.729Z,14.85
2023-01-12T06:49:02.839Z,16.25
2023-01-12T06:51:29.954Z,13.88
2023-01-12T06:53:57.065Z,18.50
2023-01-12T06:56:24.349Z,14.10
2023-01-12T06:58:51.344Z,11.18
2023-01-12T07:01:18.699Z,10.60
2023-01-12T07:03:45.838Z,13.43
2023-01-12T07:06:14.567Z,14.90
2023-01-12T07:08:42.966Z,16.30
2023-01-12T07:11:12.288Z,11.93
2023-01-12T07:13:39.481Z,11.90
2023-01-12T07:16:07.446Z,13.13
2023-01-12T07:18:34.603Z,12.90
2023-01-12T07:21:08.159Z,11.25
2023-01-12T07:23:35.651Z,9.10
2023-01-12T07:26:02.776Z,16.85
2023-01-12T07:28:31.627Z,10.30
2023-01-12T07:31:03.237Z,10.80
2023-01-12T07:33:30.655Z,15.75
2023-01-12T07:35:59.554Z,14.65
2023-01-12T07:38:28.097Z,13.35
2023-01-12T07:40:57.873Z,16.30
2023-01-12T07:43:25.447Z,12.43
2023-01-12T07:45:52.687Z,12.30
2023-01-12T07:48:21.418Z,11.88
2023-01-12T07:50:48.500Z,14.48
2023-01-12T07:53:15.672Z,15.32
2023-01-12T07:55:44.006Z,15.70
2023-01-12T07:58:11.309Z,10.38
2023-01-12T08:00:38.684Z,10.70
2023-01-12T08:03:11.776Z,10.23
2023-01-12T08:05:39.740Z,9.07
2023-01-12T08:08:07.520Z,12.80
2023-01-12T08:10:35.033Z,12.38
2023-01-12T08:13:02.330Z,14.85
2023-01-12T08:15:33.988Z,12.63
2023-01-12T08:18:06.125Z,14.05
2023-01-12T08:20:36.132Z,11.88
2023-01-12T08:23:25.498Z,13.85
2023-01-12T08:25:58.649Z,15.70
2023-01-12T08:28:39.800Z,13.93
2023-01-12T08:31:10.740Z,14.52
2023-01-12T08:33:38.405Z,17.95
2023-01-12T08:36:08.116Z,9.18
2023-01-12T08:38:35.297Z,10.30
2023-01-12T08:41:20.743Z,6.70
2023-01-12T08:44:02.824Z,8.70
2023-01-12T08:46:47.092Z,9.75
2023-01-12T08:49:16.832Z,11.80
2023-01-12T08:51:45.259Z,11.73
2023-01-12T08:54:15.334Z,9.93
2023-01-12T08:56:42.592Z,12.48
2023-01-12T08:59:10.081Z,9.85
2023-01-12T09:01:37.436Z,13.30
2023-01-12T09:04:05.321Z,12.18
2023-01-12T09:06:36.206Z,15.05
2023-01-12T09:09:05.977Z,9.73
2023-01-12T09:11:33.206Z,8.75
2023-01-12T09:14:00.449Z,12.20
2023-01-12T09:16:29.544Z,11.13
2023-01-12T09:18:56.788Z,15.95
2023-01-12T09:21:25.814Z,12.25
2023-01-12T09:23:53.439Z,11.90
2023-01-12T09:26:23.295Z,9.40
2023-01-12T09:28:51.724Z,19.90
2023-01-12T09:31:22.545Z,14.95
2023-01-12T09:33:50.001Z,8.10
2023-01-12T09:36:22.224Z,10.45
2023-01-12T09:38:50.006Z,7.10
2023-01-12T09:41:18.482Z,7.90
2023-01-12T09:44:04.140Z,13.60
2023-01-12T09:46:57.435Z,9.65
2023-01-12T09:49:35.176Z,10.77
2023-01-12T09:52:17.651Z,9.15
2023-01-12T09:54:49.433Z,11.18
2023-01-12T09:57:41.373Z,10.65
2023-01-12T10:00:13.380Z,10.82
2023-01-12T10:03:21.870Z,12.00
2023-01-12T10:05:52.427Z,10.23
2023-01-12T10:08:36.373Z,13.10
2023-01-12T10:11:25.843Z,10.37
2023-01-12T10:14:20.948Z,11.85
2023-01-12T10:17:08.084Z,5.95
2023-01-12T10:20:02.612Z,11.00
2023-01-12T10:22:39.941Z,11.70
2023-01-12T10:25:15.970Z,27.02
2023-01-12T10:27:48.115Z,23.85
2023-01-12T10:30:42.135Z,12.88
2023-01-12T10:33:11.024Z,12.65
2023-01-12T10:36:08.749Z,10.63
2023-01-12T10:38:53.123Z,9.25
2023-01-12T10:41:22.360Z,12.00
2023-01-12T10:43:55.532Z,11.10
2023-01-12T10:46:27.026Z,11.52
2023-01-12T10:48:56.385Z,13.60
2023-01-12T10:51:26.344Z,12.10
2023-01-12T10:53:58.762Z,12.68
2023-01-12T10:56:36.385Z,7.05
2023-01-12T10:59:12.305Z,13.95
2023-01-12T11:01:47.011Z,15.30
2023-01-12T11:04:19.125Z,10.55
2023-01-12T11:07:14.314Z,9.60
2023-01-12T11:09:43.602Z,13.55
2023-01-12T11:12:24.248Z,13.13
2023-01-12T11:15:02.260Z,9.57
2023-01-12T11:17:59.980Z,16.42
2023-01-12T11:20:41.978Z,6.93
2023-01-12T11:23:15.072Z,9.23
2023-01-12T11:25:46.169Z,17.85
2023-01-12T11:28:19.347Z,15.07
2023-01-12T11:30:54.900Z,10.63
2023-01-12T11:33:32.166Z,6.20
2023-01-12T11:36:09.887Z,13.85
2023-01-12T11:38:47.125Z,6.05
2023-01-12T11:41:43.344Z,9.35
2023-01-12T11:44:20.627Z,7.22
2023-01-12T11:47:14.659Z,11.15
2023-01-12T11:49:48.877Z,10.65
2023-01-12T11:52:17.026Z,7.63
2023-01-12T11:54:44.352Z,6.80
2023-01-12T11:57:41.372Z,6.72
2023-01-12T12:00:43.534Z,9.77
2023-01-12T12:03:38.895Z,8.70
2023-01-12T12:06:24.278Z,5.50
2023-01-12T12:09:19.395Z,11.23
2023-01-12T12:14:48.533Z,16.05
2023-01-12T12:20:31.862Z,13.68
2023-01-12T12:23:17.795Z,9.88
2023-01-12T12:26:06.366Z,10.85
2023-01-12T12:29:00.643Z,9.00
2023-01-12T12:31:38.116Z,6.73
2023-01-12T12:34:53.879Z,9.38
2023-01-12T12:37:39.354Z,8.35
2023-01-12T12:40:53.771Z,6.72
2023-01-12T12:43:51.471Z,8.60
2023-01-12T12:46:40.914Z,9.27
2023-01-12T12:49:22.232Z,14.73
2023-01-12T12:51:50.174Z,19.02
2023-01-12T12:54:20.215Z,12.32
2023-01-12T12:56:48.756Z,15.00
2023-01-12T12:59:34.145Z,17.38
2023-01-12T13:02:03.664Z,6.50
2023-01-12T13:04:42.610Z,10.13
2023-01-12T13:07:16.649Z,8.75
2023-01-12T13:09:44.210Z,10.43
2023-01-12T13:12:55.532Z,10.23
2023-01-12T13:15:30.241Z,10.68
2023-01-12T13:17:57.447Z,14.05
2023-01-12T13:20:36.826Z,10.48
2023-01-12T13:23:25.068Z,12.38
2023-01-12T13:25:57.147Z,8.35
2023-01-12T13:28:24.289Z,11.70
2023-01-12T13:30:54.092Z,12.02
2023-01-12T13:33:24.138Z,8.73
2023-01-12T13:35:51.204Z,10.23
2023-01-12T13:38:49.225Z,11.98
2023-01-12T13:41:52.129Z,10.85
2023-01-12T13:44:44.755Z,11.63
2023-01-12T13:47:30.522Z,14.38
2023-01-12T13:50:00.847Z,18.70
2023-01-12T13:52:32.278Z,16.08
2023-01-12T13:55:00.078Z,12.93
2023-01-12T13:57:32.281Z,14.00
2023-01-12T14:00:11.637Z,11.90
2023-01-12T14:02:42.144Z,9.07
2023-01-12T14:05:59.350Z,8.02
2023-01-12T14:08:39.642Z,14.05
2023-01-12T14:11:28.367Z,9.90
2023-01-12T14:14:25.535Z,11.70
2023-01-12T14:17:13.432Z,18.27
2023-01-12T14:19:41.144Z,16.30
2023-01-12T14:22:18.756Z,15.07
2023-01-12T14:24:46.008Z,20.17
2023-01-12T14:27:21.349Z,28.95
2023-01-12T14:29:48.480Z,14.38
2023-01-12T14:32:15.688Z,16.73
2023-01-12T14:34:52.332Z,22.00
2023-01-12T14:37:31.559Z,14.68
2023-01-12T14:39:59.067Z,10.75
2023-01-12T14:42:44.918Z,10.73
2023-01-12T14:45:41.924Z,32.70
2023-01-12T14:48:32.431Z,79.85
2023-01-12T14:51:00.995Z,64.50
2023-01-12T14:53:40.324Z,25.17
2023-01-12T14:56:22.335Z,15.00
2023-01-12T14:58:49.614Z,10.05
2023-01-12T15:01:33.244Z,16.05
2023-01-12T15:04:00.991Z,14.35
2023-01-12T15:06:28.058Z,15.18
2023-01-12T15:08:58.914Z,11.88
2023-01-12T15:11:35.131Z,11.02
2023-01-12T15:14:04.657Z,8.27
2023-01-12T15:16:50.144Z,12.07
2023-01-12T15:19:35.812Z,10.18
2023-01-12T15:22:21.147Z,12.43
2023-01-12T15:25:06.909Z,11.80
2023-01-12T15:27:34.065Z,10.95
2023-01-12T15:30:01.152Z,11.30
2023-01-12T15:32:49.283Z,11.65
2023-01-12T15:35:18.159Z,13.13
2023-01-12T15:37:45.383Z,12.73
2023-01-12T15:40:16.540Z,7.25
2023-01-12T15:42:43.764Z,10.30
2023-01-12T15:45:24.922Z,9.55
2023-01-12T15:47:51.957Z,11.20
2023-01-12T15:50:19.022Z,12.25
2023-01-12T15:52:48.960Z,10.68
2023-01-12T15:55:20.133Z,13.77
2023-01-12T15:57:51.541Z,14.55
2023-01-12T16:00:21.801Z,12.20
2023-01-12T16:02:50.974Z,11.57
2023-01-12T16:05:21.029Z,10.70
2023-01-12T16:07:48.835Z,10.88
2023-01-12T16:10:17.242Z,13.07
2023-01-12T16:12:44.795Z,9.20
2023-01-12T16:15:30.531Z,8.68
2023-01-12T16:17:57.643Z,8.45
2023-01-12T16:20:24.735Z,10.05
2023-01-12T16:22:54.699Z,9.52
2023-01-12T16:25:21.706Z,8.68
2023-01-12T16:27:48.758Z,8.35
2023-01-12T16:30:16.551Z,7.68
2023-01-12T16:32:46.923Z,10.20
2023-01-12T16:35:15.415Z,6.05
2023-01-12T16:37:43.084Z,11.82
2023-01-12T16:40:11.141Z,8.20
2023-01-12T16:42:38.187Z,9.10
2023-01-12T16:45:06.328Z,8.52
2023-01-12T16:47:33.440Z,9.77
2023-01-12T16:50:00.639Z,14.73
2023-01-12T16:52:27.820Z,9.88
2023-01-12T16:54:54.883Z,12.32
2023-01-12T16:57:22.047Z,9.85
2023-01-12T16:59:49.847Z,8.75
2023-01-12T17:02:19.441Z,9.07
2023-01-12T17:04:49.153Z,10.80
2023-01-12T17:07:16.572Z,9.98
2023-01-12T17:09:44.139Z,11.70
2023-01-12T17:12:11.594Z,13.05
2023-01-12T17:14:39.182Z,10.60
2023-01-12T17:17:08.733Z,9.77
2023-01-12T17:19:37.671Z,8.98
2023-01-12T17:22:06.957Z,10.10
2023-01-12T17:24:36.621Z,7.45
2023-01-12T17:27:03.921Z,11.77
2023-01-12T17:29:31.085Z,9.73
2023-01-12T17:32:04.755Z,10.40
2023-01-12T17:34:39.449Z,13.23
2023-01-12T17:37:09.962Z,11.55
2023-01-12T17:39:43.018Z,10.75
2023-01-12T17:42:34.762Z,9.30
2023-01-12T17:45:02.491Z,9.20
2023-01-12T17:47:29.674Z,5.57
2023-01-12T17:49:56.795Z,5.95
2023-01-12T17:52:24.461Z,10.15
2023-01-12T17:54:51.564Z,6.25
2023-01-12T17:57:18.628Z,9.88
2023-01-12T17:59:45.820Z,7.32
2023-01-12T18:02:14.936Z,8.00
2023-01-12T18:04:42.172Z,12.48
2023-01-12T18:07:09.560Z,8.57
2023-01-12T18:09:37.226Z,12.18
2023-01-12T18:12:05.353Z,9.50
2023-01-12T18:14:32.564Z,10.50
2023-01-12T18:16:59.668Z,12.52
2023-01-12T18:19:26.773Z,12.00
2023-01-12T18:21:53.890Z,13.43
2023-01-12T18:24:22.411Z,6.03
2023-01-12T18:26:50.953Z,5.90
2023-01-12T18:29:18.005Z,4.30
2023-01-12T18:31:47.393Z,4.53
2023-01-12T18:34:16.719Z,4.90
2023-01-12T18:36:43.854Z,6.60
2023-01-12T18:39:18.625Z,7.00
2023-01-12T18:42:04.109Z,5.53
2023-01-12T18:44:32.844Z,6.18
2023-01-12T18:47:19.850Z,5.15
2023-01-12T18:49:50.503Z,6.63
2023-01-12T18:52:37.045Z,7.72
2023-01-12T18:55:05.631Z,5.97
2023-01-12T18:57:33.338Z,7.53
2023-01-12T19:00:18.055Z,6.20
2023-01-12T19:05:33.587Z,4.80
2023-01-12T19:08:00.930Z,5.18
2023-01-12T19:10:29.885Z,5.70
2023-01-12T19:13:16.920Z,6.80
2023-01-12T19:16:02.806Z,6.15
2023-01-12T19:18:30.075Z,5.65
2023-01-12T19:21:22.890Z,7.07
2023-01-12T19:24:08.447Z,7.00
2023-01-12T19:26:53.914Z,3.70
2023-01-12T19:29:20.976Z,4.43
2023-01-12T19:31:48.067Z,5.10
2023-01-12T19:34:15.130Z,3.95
2023-01-12T19:36:42.162Z,4.40
2023-01-12T19:39:11.218Z,4.65
2023-01-12T19:41:56.649Z,5.70
2023-01-12T19:44:23.709Z,5.47
2023-01-12T19:46:50.984Z,6.07
2023-01-12T19:49:18.629Z,4.78
2023-01-12T19:51:48.849Z,6.13
2023-01-12T19:54:15.977Z,5.30
2023-01-12T19:56:45.778Z,6.70
2023-01-12T19:59:13.778Z,7.65
2023-01-12T20:01:40.855Z,8.48
2023-01-12T20:04:08.004Z,8.35
2023-01-12T20:06:35.990Z,5.25
2023-01-12T20:09:03.110Z,4.22
2023-01-12T20:11:30.286Z,5.07
2023-01-12T20:13:57.345Z,4.32
2023-01-12T20:16:24.620Z,4.10
2023-01-12T20:18:59.563Z,3.95
2023-01-12T20:21:26.678Z,4.05
2023-01-12T20:23:53.686Z,4.53
2023-01-12T20:26:20.812Z,5.18
2023-01-12T20:28:47.919Z,4.95
2023-01-12T20:31:16.431Z,6.07
2023-01-12T20:33:43.724Z,5.45
2023-01-12T20:36:16.504Z,6.03
2023-01-12T20:38:44.096Z,6.40
2023-01-12T20:41:11.253Z,4.97
2023-01-12T20:43:38.551Z,5.85
2023-01-12T20:46:10.602Z,5.30
2023-01-12T20:48:37.696Z,5.70
2023-01-12T20:51:09.351Z,6.38
2023-01-12T20:53:36.547Z,4.57
2023-01-12T20:56:04.478Z,6.35
2023-01-12T20:58:32.128Z,4.45
2023-01-12T21:00:59.261Z,3.75
2023-01-12T21:03:26.476Z,4.18
2023-01-12T21:05:54.057Z,5.75
2023-01-12T21:08:21.118Z,4.93
2023-01-12T21:10:50.656Z,5.10
2023-01-12T21:13:18.698Z,5.10
2023-01-12T21:15:46.095Z,5.05
2023-01-12T21:18:13.673Z,6.78
2023-01-12T21:20:42.772Z,5.35
2023-01-12T21:23:10.288Z,4.50
2023-01-12T21:25:43.947Z,4.50
2023-01-12T21:28:11.568Z,5.25
2023-01-12T21:30:39.440Z,5.00
2023-01-12T21:33:06.597Z,3.90
2023-01-12T21:35:33.949Z,2.90
2023-01-12T21:38:01.192Z,5.25
2023-01-12T21:40:28.796Z,5.00
2023-01-12T21:43:12.003Z,4.72
2023-01-12T21:45:42.538Z,6.30
2023-01-12T21:48:11.618Z,5.07
2023-01-12T21:50:39.192Z,4.97
2023-01-12T21:53:06.904Z,3.60
2023-01-12T21:55:35.121Z,6.35
2023-01-12T21:58:02.296Z,5.10
2023-01-12T22:00:30.140Z,4.03
2023-01-12T22:02:57.788Z,4.25
2023-01-12T22:05:25.907Z,2.70
2023-01-12T22:07:55.366Z,2.55
2023-01-12T22:10:25.394Z,5.28
2023-01-12T22:12:58.541Z,5.07
2023-01-12T22:15:27.482Z,12.00
2023-01-12T22:17:55.262Z,3.55
2023-01-12T22:20:24.285Z,3.05
2023-01-12T22:22:51.931Z,4.30
2023-01-12T22:25:19.274Z,3.15
2023-01-12T22:27:46.801Z,3.60
2023-01-12T22:30:17.413Z,4.68
2023-01-12T22:32:44.903Z,5.70
2023-01-12T22:35:13.012Z,3.75
2023-01-12T22:37:40.942Z,4.07
2023-01-12T22:40:10.354Z,5.43
2023-01-12T22:42:55.791Z,3.63
2023-01-12T22:45:23.071Z,5.32
2023-01-12T22:47:54.885Z,4.63
2023-01-12T22:50:23.517Z,4.20
2023-01-12T22:52:52.781Z,4.03
2023-01-12T22:55:21.497Z,4.85
2023-01-12T22:57:48.814Z,3.13
2023-01-12T23:00:17.783Z,3.20
2023-01-12T23:03:00.534Z,3.40
2023-01-12T23:05:32.033Z,4.07
2023-01-12T23:07:59.542Z,3.47
2023-01-12T23:10:26.690Z,3.78
2023-01-12T23:13:14.085Z,5.78
2023-01-12T23:15:46.392Z,4.32
2023-01-12T23:18:16.753Z,3.75
2023-01-12T23:20:44.023Z,4.35
2023-01-12T23:23:11.575Z,2.58
2023-01-12T23:25:39.463Z,3.20
2023-01-12T23:28:07.912Z,2.25
2023-01-12T23:30:35.196Z,4.03
2023-01-12T23:33:04.277Z,3.13
2023-01-12T23:35:36.083Z,2.17
2023-01-12T23:38:03.689Z,2.92
2023-01-12T23:40:31.045Z,4.10
2023-01-12T23:42:59.076Z,4.28
2023-01-12T23:45:26.225Z,3.35
2023-01-12T23:47:53.334Z,2.75
2023-01-12T23:50:21.042Z,6.30
2023-01-12T23:52:50.120Z,3.60
2023-01-12T23:55:18.236Z,3.00
2023-01-12T23:57:48.558Z,2.70
